Time;durP1;ratioP1;P1;durP2;ratioP2;P2;SDS_P1;SDS_P2;PMS_P1;PMS_P2;Temp;Humidity;BMP_temperature;BMP_pressure;BME280_temperature;BME280_humidity;BME280_pressure;Samples;Min_cycle;Max_cycle;Signal;HPM_P1;HPM_P2
2023/08/09 00:01:09;;;;;;;1.98;1.77;;;14.60;99.90;;;;;;5001811;28;20030;-39
2023/08/09 00:03:35;;;;;;;1.80;1.70;;;14.70;99.90;;;;;;4995892;28;20037;-37
2023/08/09 00:06:01;;;;;;;2.17;1.90;;;14.60;99.90;;;;;;4986590;28;20029;-35
2023/08/09 00:08:26;;;;;;;2.63;1.80;;;14.60;99.90;;;;;;4987169;28;20063;-37
2023/08/09 00:10:52;;;;;;;3.80;2.00;;;14.60;99.90;;;;;;4987694;28;20042;-39
2023/08/09 00:13:17;;;;;;;2.83;1.90;;;14.70;99.90;;;;;;4986475;28;20045;-38
2023/08/09 00:15:43;;;;;;;2.28;1.85;;;14.60;99.90;;;;;;4987296;28;20033;-40
2023/08/09 00:18:09;;;;;;;1.83;1.73;;;14.60;99.90;;;;;;4987354;28;20036;-41
2023/08/09 00:20:36;;;;;;;2.22;1.95;;;14.60;99.90;;;;;;4986690;28;20049;-39
2023/08/09 00:23:02;;;;;;;2.00;1.80;;;14.60;99.90;;;;;;4986243;28;20034;-38
2023/08/09 00:25:29;;;;;;;4.55;2.00;;;14.60;99.90;;;;;;4986392;28;20029;-40
2023/08/09 00:27:54;;;;;;;1.98;1.80;;;14.60;99.90;;;;;;4986037;28;20148;-41
2023/08/09 00:30:20;;;;;;;3.05;2.05;;;14.60;99.90;;;;;;4971203;28;20503;-39
2023/08/09 00:32:45;;;;;;;2.42;1.85;;;14.50;99.90;;;;;;4984403;28;20136;-40
2023/08/09 00:35:12;;;;;;;3.00;1.95;;;14.60;99.90;;;;;;4988819;28;20065;-41
2023/08/09 00:37:38;;;;;;;3.13;1.80;;;14.70;99.90;;;;;;4987331;28;20034;-39
2023/08/09 00:40:07;;;;;;;4.30;2.10;;;14.70;99.90;;;;;;4988213;28;20617;-38
2023/08/09 00:42:35;;;;;;;3.20;1.95;;;14.80;99.90;;;;;;4988201;28;20393;-41
2023/08/09 00:45:03;;;;;;;2.55;1.50;;;14.80;99.90;;;;;;4986721;28;20027;-35
2023/08/09 00:47:31;;;;;;;2.77;1.90;;;14.70;99.90;;;;;;4987656;28;20026;-41
2023/08/09 00:49:57;;;;;;;1.90;1.70;;;14.70;99.90;;;;;;4987315;28;20352;-39
2023/08/09 00:52:25;;;;;;;2.50;1.80;;;14.60;99.90;;;;;;4987646;28;20042;-39
2023/08/09 00:54:51;;;;;;;2.95;2.10;;;14.70;99.90;;;;;;4987878;28;20123;-39
2023/08/09 00:57:17;;;;;;;2.00;1.67;;;14.60;99.90;;;;;;4986477;28;20045;-38
2023/08/09 00:59:43;;;;;;;2.70;1.80;;;14.50;99.90;;;;;;4987305;28;20025;-39
2023/08/09 01:02:09;;;;;;;2.03;1.73;;;14.50;99.90;;;;;;4989506;28;20584;-41
2023/08/09 01:04:37;;;;;;;1.85;1.60;;;14.50;99.90;;;;;;5004344;28;20467;-41
2023/08/09 01:07:09;;;;;;;3.70;1.83;;;14.60;99.90;;;;;;5005753;28;20476;-41
2023/08/09 01:09:45;;;;;;;2.55;2.08;;;14.60;99.90;;;;;;5006060;28;20510;-40
2023/08/09 01:12:14;;;;;;;1.85;1.75;;;14.50;99.90;;;;;;5001117;28;20109;-39
2023/08/09 01:14:50;;;;;;;2.30;1.60;;;14.50;99.90;;;;;;4989344;28;20034;-38
2023/08/09 01:17:16;;;;;;;2.83;1.98;;;14.50;99.90;;;;;;5002471;28;20042;-41
2023/08/09 01:19:48;;;;;;;2.42;1.88;;;14.50;99.90;;;;;;5003879;28;20036;-33
2023/08/09 01:22:21;;;;;;;3.28;2.10;;;14.40;99.90;;;;;;5000680;28;20033;-33
2023/08/09 01:24:49;;;;;;;3.03;2.30;;;14.40;99.90;;;;;;5001540;28;20095;-34
2023/08/09 01:27:14;;;;;;;2.22;1.90;;;14.50;99.90;;;;;;5003951;28;20034;-32
2023/08/09 01:29:41;;;;;;;2.63;2.13;;;14.50;99.90;;;;;;5005611;28;20053;-32
2023/08/09 01:32:07;;;;;;;2.10;1.90;;;14.50;99.90;;;;;;5004149;28;20734;-35
2023/08/09 01:34:34;;;;;;;3.17;1.83;;;14.50;99.90;;;;;;5004890;28;20030;-33
2023/08/09 01:37:10;;;;;;;2.40;2.20;;;14.50;99.90;;;;;;5003324;28;20479;-35
2023/08/09 01:39:38;;;;;;;2.20;2.00;;;14.50;99.90;;;;;;5002360;28;20076;-33
2023/08/09 01:42:06;;;;;;;2.25;1.98;;;14.40;99.90;;;;;;4998675;28;20179;-33
2023/08/09 01:44:33;;;;;;;1.80;1.70;;;14.50;99.90;;;;;;5002440;28;20038;-35
2023/08/09 01:46:59;;;;;;;3.40;2.03;;;14.40;99.90;;;;;;5000219;28;20095;-36
2023/08/09 01:49:25;;;;;;;3.50;1.90;;;14.40;99.90;;;;;;5000841;28;20038;-32
2023/08/09 01:51:54;;;;;;;3.05;1.70;;;14.40;99.90;;;;;;5001785;28;20479;-33
2023/08/09 01:54:19;;;;;;;2.25;1.80;;;14.30;99.90;;;;;;5000159;28;20034;-34
2023/08/09 01:56:45;;;;;;;2.83;1.80;;;14.30;99.90;;;;;;5006041;28;20033;-33
2023/08/09 01:59:11;;;;;;;2.72;2.05;;;14.30;99.90;;;;;;5004142;28;20113;-32
2023/08/09 02:01:36;;;;;;;2.75;1.77;;;14.20;99.90;;;;;;5001666;28;20057;-32
2023/08/09 02:04:03;;;;;;;2.35;2.00;;;14.20;99.90;;;;;;4998846;28;20091;-36
2023/08/09 02:06:32;;;;;;;2.00;1.80;;;14.30;99.90;;;;;;5001198;28;20030;-33
2023/08/09 02:08:58;;;;;;;2.28;2.08;;;14.30;99.90;;;;;;4999790;28;20034;-41
2023/08/09 02:11:24;;;;;;;2.45;1.67;;;14.30;99.90;;;;;;4985105;28;20026;-39
2023/08/09 02:13:49;;;;;;;2.67;2.05;;;14.20;99.90;;;;;;5002510;28;20586;-40
2023/08/09 02:16:15;;;;;;;1.95;1.80;;;14.20;99.90;;;;;;5001172;28;20033;-37
2023/08/09 02:18:41;;;;;;;2.95;1.88;;;14.30;99.90;;;;;;5002707;28;20080;-38
2023/08/09 02:21:07;;;;;;;2.00;1.80;;;14.30;99.90;;;;;;5004992;28;20042;-40
2023/08/09 02:23:33;;;;;;;2.15;1.80;;;14.30;99.90;;;;;;5004903;28;20017;-40
2023/08/09 02:25:58;;;;;;;1.95;1.80;;;14.30;99.90;;;;;;5004753;28;20034;-40
2023/08/09 02:28:24;;;;;;;2.38;1.85;;;14.30;99.90;;;;;;5002792;28;20156;-40
2023/08/09 02:30:49;;;;;;;1.60;1.50;;;14.20;99.90;;;;;;5000379;28;20034;-38
2023/08/09 02:33:15;;;;;;;2.53;1.80;;;14.20;99.90;;;;;;4999116;28;20050;-40
2023/08/09 02:36:07;;;;;;;3.92;1.77;;;14.30;99.90;;;;;;5002694;28;20092;-39
2023/08/09 02:38:33;;;;;;;4.15;2.10;;;14.30;99.90;;;;;;4998692;28;20064;-41
2023/08/09 02:41:04;;;;;;;3.78;2.10;;;14.30;99.90;;;;;;4998755;28;20041;-40
2023/08/09 02:43:30;;;;;;;5.82;1.83;;;14.30;99.90;;;;;;5002930;28;20045;-40
2023/08/09 02:45:56;;;;;;;2.40;1.55;;;14.30;99.90;;;;;;5002503;28;20088;-39
2023/08/09 02:48:22;;;;;;;1.92;1.73;;;14.30;99.90;;;;;;4983466;28;20034;-40
2023/08/09 02:50:49;;;;;;;3.00;1.70;;;14.30;99.90;;;;;;5003683;28;20044;-40
2023/08/09 02:53:15;;;;;;;4.70;1.98;;;14.40;99.90;;;;;;5000831;28;20058;-40
2023/08/09 02:55:42;;;;;;;3.00;2.08;;;14.40;99.90;;;;;;5003174;28;20061;-37
2023/08/09 02:58:07;;;;;;;2.70;2.20;;;14.30;99.90;;;;;;5003804;28;20030;-40
2023/08/09 03:00:34;;;;;;;2.25;1.75;;;14.20;99.90;;;;;;5000234;28;20641;-37
2023/08/09 03:03:00;;;;;;;2.42;1.75;;;14.20;99.90;;;;;;5004440;28;20022;-37
2023/08/09 03:05:29;;;;;;;2.58;2.20;;;14.20;99.90;;;;;;5000703;28;20499;-41
2023/08/09 03:07:55;;;;;;;2.60;1.80;;;14.30;99.90;;;;;;5001102;28;20025;-40
2023/08/09 03:10:22;;;;;;;2.70;2.08;;;14.30;99.90;;;;;;4995681;28;20084;-38
2023/08/09 03:12:48;;;;;;;2.35;1.80;;;14.40;99.90;;;;;;5001309;28;20045;-39
2023/08/09 03:15:15;;;;;;;2.28;1.67;;;14.40;99.90;;;;;;4998454;28;20351;-40
2023/08/09 03:17:41;;;;;;;3.17;2.08;;;14.40;99.90;;;;;;5001099;28;20040;-38
2023/08/09 03:20:14;;;;;;;3.00;1.73;;;14.30;99.90;;;;;;5001334;28;20041;-40
2023/08/09 03:22:48;;;;;;;4.25;1.80;;;14.40;99.90;;;;;;4997989;28;20026;-40
2023/08/09 03:25:14;;;;;;;2.00;1.80;;;14.40;99.90;;;;;;5000960;28;20987;-40
2023/08/09 03:27:41;;;;;;;1.75;1.58;;;14.30;99.90;;;;;;4996229;28;20034;-40
2023/08/09 03:30:08;;;;;;;2.03;1.83;;;14.30;99.90;;;;;;5004073;28;20450;-39
2023/08/09 03:32:35;;;;;;;1.92;1.58;;;14.30;99.90;;;;;;4997070;28;20403;-39
2023/08/09 03:35:01;;;;;;;1.95;1.80;;;14.30;99.90;;;;;;5003816;28;20044;-41
2023/08/09 03:37:27;;;;;;;3.10;2.00;;;14.30;99.90;;;;;;4997923;28;20041;-35
2023/08/09 03:39:52;;;;;;;1.92;1.77;;;14.30;99.90;;;;;;5000991;28;20471;-40
2023/08/09 03:42:18;;;;;;;3.40;1.88;;;14.30;99.90;;;;;;4987763;28;20033;-41
2023/08/09 03:44:44;;;;;;;1.88;1.70;;;14.40;99.90;;;;;;5006339;28;20029;-41
2023/08/09 03:47:09;;;;;;;2.30;2.10;;;14.40;99.90;;;;;;5000214;28;20022;-39
2023/08/09 03:49:35;;;;;;;1.58;1.48;;;14.30;99.90;;;;;;4999723;28;20095;-41
2023/08/09 03:52:01;;;;;;;5.57;2.10;;;14.30;99.90;;;;;;4999910;28;20084;-40
2023/08/09 03:54:26;;;;;;;2.47;1.80;;;14.30;99.90;;;;;;5001920;28;20415;-40
2023/08/09 03:56:52;;;;;;;2.30;2.03;;;14.40;99.90;;;;;;5001536;28;20022;-40
2023/08/09 03:59:18;;;;;;;1.95;1.83;;;14.40;99.90;;;;;;4998726;28;20121;-38
2023/08/09 04:01:43;;;;;;;2.63;2.10;;;14.40;99.90;;;;;;5001442;28;20034;-40
2023/08/09 04:04:09;;;;;;;2.28;1.80;;;14.40;99.90;;;;;;4995621;28;20769;-39
2023/08/09 04:06:34;;;;;;;1.80;1.70;;;14.40;99.90;;;;;;5003111;28;20021;-40
2023/08/09 04:09:01;;;;;;;1.92;1.70;;;14.30;99.90;;;;;;5001635;28;20059;-40
2023/08/09 04:11:26;;;;;;;2.90;1.88;;;14.30;99.90;;;;;;4994490;28;20475;-41
2023/08/09 04:13:53;;;;;;;2.15;1.95;;;14.30;99.90;;;;;;4999985;28;20041;-39
2023/08/09 04:16:18;;;;;;;3.50;2.10;;;14.30;99.90;;;;;;5001451;28;20407;-41
2023/08/09 04:18:44;;;;;;;3.30;2.03;;;14.30;99.90;;;;;;5000412;28;20018;-41
2023/08/09 04:21:10;;;;;;;3.20;2.45;;;14.30;99.90;;;;;;4998768;28;20076;-37
2023/08/09 04:23:36;;;;;;;4.82;2.15;;;14.30;99.90;;;;;;4985968;28;20397;-40
2023/08/09 04:26:03;;;;;;;4.03;2.20;;;14.30;99.90;;;;;;4998735;28;20029;-40
2023/08/09 04:28:29;;;;;;;3.92;2.50;;;14.30;99.90;;;;;;5002191;28;20046;-40
2023/08/09 04:30:54;;;;;;;2.53;1.92;;;14.30;99.90;;;;;;4998316;28;20038;-37
2023/08/09 04:33:22;;;;;;;3.60;2.38;;;14.20;99.90;;;;;;5000709;28;20117;-34
2023/08/09 04:35:48;;;;;;;2.50;2.00;;;14.30;99.90;;;;;;5004464;28;20029;-32
2023/08/09 04:38:14;;;;;;;3.28;2.05;;;14.20;99.90;;;;;;5000843;28;20034;-34
2023/08/09 04:40:40;;;;;;;4.13;2.30;;;14.20;99.90;;;;;;4999512;28;20022;-33
2023/08/09 04:43:05;;;;;;;2.28;2.05;;;14.20;99.90;;;;;;5006078;28;20564;-32
2023/08/09 04:45:32;;;;;;;4.35;1.90;;;14.20;99.90;;;;;;4989206;28;20038;-31
2023/08/09 04:47:58;;;;;;;3.38;2.00;;;14.20;99.90;;;;;;5007160;28;20037;-32
2023/08/09 04:50:24;;;;;;;2.25;1.88;;;14.20;99.90;;;;;;5000697;28;20073;-41
2023/08/09 04:52:50;;;;;;;2.83;1.80;;;14.20;99.90;;;;;;4986116;28;20034;-40
2023/08/09 04:55:16;;;;;;;2.33;1.80;;;14.20;99.90;;;;;;5002316;28;20029;-41
2023/08/09 04:57:42;;;;;;;2.90;2.20;;;14.20;99.90;;;;;;4983977;28;20085;-41
2023/08/09 05:00:12;;;;;;;3.65;2.88;;;14.20;99.90;;;;;;4996830;28;20034;-41
2023/08/09 05:02:38;;;;;;;2.60;2.40;;;14.20;99.90;;;;;;4998001;28;20030;-41
2023/08/09 05:05:04;;;;;;;2.75;2.40;;;14.20;99.90;;;;;;4987128;28;20034;-40
2023/08/09 05:07:30;;;;;;;2.83;1.95;;;14.20;99.90;;;;;;4997654;28;20483;-39
2023/08/09 05:09:56;;;;;;;3.10;2.20;;;14.10;99.90;;;;;;4995709;28;20044;-40
2023/08/09 05:12:21;;;;;;;2.63;2.00;;;14.20;99.90;;;;;;4996381;28;20137;-39
2023/08/09 05:14:47;;;;;;;4.00;2.20;;;14.20;99.90;;;;;;5000231;28;20065;-41
2023/08/09 05:17:13;;;;;;;2.47;1.85;;;14.20;99.90;;;;;;5013123;28;20144;-41
2023/08/09 05:19:38;;;;;;;3.28;2.10;;;14.20;99.90;;;;;;5001378;28;20034;-40
2023/08/09 05:22:04;;;;;;;2.17;1.98;;;14.20;99.90;;;;;;4999537;28;20483;-40
2023/08/09 05:24:29;;;;;;;3.85;2.22;;;14.30;99.90;;;;;;4995742;28;20022;-39
2023/08/09 05:26:55;;;;;;;3.30;1.90;;;14.30;99.90;;;;;;4998809;28;20471;-41
2023/08/09 05:29:20;;;;;;;2.08;1.88;;;14.30;99.90;;;;;;4999849;28;20507;-41
2023/08/09 05:31:46;;;;;;;2.78;2.13;;;14.30;99.90;;;;;;4999159;28;20038;-41
2023/08/09 05:34:13;;;;;;;3.45;2.17;;;14.40;99.90;;;;;;4998433;28;20458;-40
2023/08/09 05:36:39;;;;;;;5.15;2.38;;;14.40;99.90;;;;;;4999129;28;20064;-41
2023/08/09 05:39:05;;;;;;;2.28;2.08;;;14.40;99.90;;;;;;4998123;28;20025;-41
2023/08/09 05:41:30;;;;;;;3.88;2.20;;;14.40;99.90;;;;;;5001480;28;20092;-40
2023/08/09 05:43:56;;;;;;;2.33;2.05;;;14.40;99.90;;;;;;4996593;28;20491;-41
2023/08/09 05:46:22;;;;;;;3.58;2.13;;;14.50;99.90;;;;;;4997501;28;20030;-41
2023/08/09 05:48:48;;;;;;;2.25;2.05;;;14.50;99.90;;;;;;4989589;28;20034;-39
2023/08/09 05:51:13;;;;;;;3.13;2.20;;;14.50;99.90;;;;;;5000537;28;20442;-40
2023/08/09 05:53:39;;;;;;;2.92;1.83;;;14.60;99.90;;;;;;4999806;28;20069;-41
2023/08/09 05:56:06;;;;;;;3.20;1.90;;;14.60;99.90;;;;;;4993930;28;20104;-41
2023/08/09 05:58:31;;;;;;;2.72;2.00;;;14.60;99.90;;;;;;4986093;28;20503;-40
2023/08/09 06:00:57;;;;;;;2.85;2.35;;;14.60;99.90;;;;;;4987009;28;20038;-36
2023/08/09 06:03:22;;;;;;;3.03;2.33;;;14.70;99.90;;;;;;4988328;28;20034;-39
2023/08/09 06:05:48;;;;;;;13.07;8.20;;;14.70;99.90;;;;;;4994525;28;20038;-41
2023/08/09 06:08:14;;;;;;;3.58;2.92;;;14.80;99.90;;;;;;4999144;28;20033;-38
2023/08/09 06:10:39;;;;;;;5.20;2.75;;;14.80;99.90;;;;;;5001524;28;20106;-39
2023/08/09 06:13:05;;;;;;;3.85;2.58;;;14.80;99.90;;;;;;4996579;28;20120;-40
2023/08/09 06:15:31;;;;;;;3.17;2.30;;;14.80;99.90;;;;;;5003569;28;20080;-38
2023/08/09 06:17:56;;;;;;;2.08;1.88;;;14.80;99.90;;;;;;4996827;28;20060;-41
2023/08/09 06:20:22;;;;;;;2.38;2.05;;;14.90;99.90;;;;;;4990286;28;20682;-39
2023/08/09 06:22:48;;;;;;;2.80;1.88;;;14.90;99.90;;;;;;4988226;28;20042;-39
2023/08/09 06:25:14;;;;;;;2.17;1.70;;;14.90;99.90;;;;;;4985688;28;20032;-41
2023/08/09 06:27:40;;;;;;;3.60;2.20;;;15.00;99.90;;;;;;4991110;28;20030;-39
2023/08/09 06:30:06;;;;;;;3.05;1.88;;;15.00;99.90;;;;;;4997991;28;20054;-40
2023/08/09 06:32:32;;;;;;;5.20;2.17;;;15.00;99.90;;;;;;4986099;28;20037;-40
2023/08/09 06:34:58;;;;;;;2.00;1.80;;;15.00;99.90;;;;;;5003161;28;20033;-39
2023/08/09 06:37:24;;;;;;;3.58;2.08;;;15.10;99.90;;;;;;5001933;28;20104;-41
2023/08/09 06:39:50;;;;;;;2.65;2.00;;;15.10;99.90;;;;;;4999181;28;20512;-41
2023/08/09 06:42:16;;;;;;;3.10;1.90;;;15.00;99.90;;;;;;4998338;28;20502;-38
2023/08/09 06:44:42;;;;;;;3.17;2.20;;;15.00;99.90;;;;;;4995732;28;20200;-39
2023/08/09 06:47:07;;;;;;;1.90;1.80;;;15.00;99.90;;;;;;5000458;28;20105;-40
2023/08/09 06:49:34;;;;;;;4.03;1.90;;;15.00;99.90;;;;;;5005367;28;20034;-31
2023/08/09 06:52:00;;;;;;;2.35;1.90;;;15.00;99.90;;;;;;5001036;28;20025;-32
2023/08/09 06:54:27;;;;;;;3.53;2.08;;;15.10;99.90;;;;;;5001320;28;20407;-36
2023/08/09 06:56:53;;;;;;;2.63;1.75;;;15.10;99.90;;;;;;5001737;28;20033;-33
2023/08/09 06:59:19;;;;;;;2.42;1.88;;;15.10;99.90;;;;;;4995691;28;20030;-32
2023/08/09 07:01:47;;;;;;;4.63;2.00;;;15.10;99.90;;;;;;4999203;28;20027;-31
2023/08/09 07:04:13;;;;;;;2.33;1.90;;;15.20;99.90;;;;;;4999454;28;20092;-31
2023/08/09 07:06:39;;;;;;;2.90;1.80;;;15.20;99.90;;;;;;4999305;28;20022;-31
2023/08/09 07:09:06;;;;;;;2.00;1.80;;;15.20;99.90;;;;;;4999162;28;20037;-31
2023/08/09 07:11:32;;;;;;;2.13;1.90;;;15.20;99.90;;;;;;4998494;28;20076;-32
2023/08/09 07:13:58;;;;;;;1.90;1.80;;;15.20;99.90;;;;;;4985899;28;20037;-31
2023/08/09 07:16:24;;;;;;;2.40;2.05;;;15.20;99.90;;;;;;5002326;28;20034;-34
2023/08/09 07:18:49;;;;;;;1.80;1.70;;;15.20;99.90;;;;;;5000110;28;20494;-31
2023/08/09 07:21:15;;;;;;;2.55;1.80;;;15.20;99.90;;;;;;5000364;28;20037;-31
2023/08/09 07:23:41;;;;;;;1.50;1.33;;;15.20;99.90;;;;;;5002558;28;20030;-31
2023/08/09 07:26:06;;;;;;;2.78;1.63;;;15.20;99.90;;;;;;5001495;28;20030;-31
2023/08/09 07:28:32;;;;;;;2.65;1.65;;;15.30;99.90;;;;;;5006693;28;20158;-32
2023/08/09 07:30:58;;;;;;;1.92;1.50;;;15.20;99.90;;;;;;4997890;28;20088;-35
2023/08/09 07:33:24;;;;;;;2.92;1.50;;;15.30;99.90;;;;;;4997637;28;20359;-33
2023/08/09 07:35:49;;;;;;;1.70;1.60;;;15.20;99.90;;;;;;5002161;28;20083;-34
2023/08/09 07:38:16;;;;;;;2.85;1.50;;;15.30;99.90;;;;;;4998213;28;20030;-31
2023/08/09 07:40:42;;;;;;;2.65;1.65;;;15.30;99.90;;;;;;4997682;28;20034;-31
2023/08/09 07:43:07;;;;;;;2.88;1.90;;;15.30;99.90;;;;;;5000406;28;20368;-31
2023/08/09 07:45:33;;;;;;;2.45;1.70;;;15.40;99.90;;;;;;4998310;28;20672;-34
2023/08/09 07:47:59;;;;;;;2.00;1.80;;;15.40;99.90;;;;;;5002638;28;20510;-34
2023/08/09 07:50:25;;;;;;;3.25;1.90;;;15.50;99.90;;;;;;4996350;28;20034;-31
2023/08/09 07:52:51;;;;;;;1.90;1.58;;;15.50;99.90;;;;;;4997444;28;20030;-31
2023/08/09 07:55:17;;;;;;;1.92;1.60;;;15.60;99.90;;;;;;5002242;28;20042;-33
2023/08/09 07:57:44;;;;;;;2.45;1.60;;;15.60;99.90;;;;;;5002952;28;20121;-31
2023/08/09 08:00:12;;;;;;;2.15;1.55;;;15.60;99.90;;;;;;4998812;28;20418;-33
2023/08/09 08:02:42;;;;;;;1.70;1.52;;;15.60;99.90;;;;;;5000584;28;20034;-31
2023/08/09 08:05:11;;;;;;;2.05;1.60;;;15.60;99.90;;;;;;5000798;28;20082;-31
2023/08/09 08:07:38;;;;;;;2.35;1.40;;;15.60;99.90;;;;;;5000560;28;20054;-31
2023/08/09 08:10:05;;;;;;;1.85;1.45;;;15.60;99.90;;;;;;5002070;28;20087;-31
2023/08/09 08:12:30;;;;;;;1.85;1.75;;;15.50;99.90;;;;;;4999679;28;20033;-31
2023/08/09 08:14:56;;;;;;;1.45;1.35;;;15.50;99.90;;;;;;5001079;28;20542;-32
2023/08/09 08:17:22;;;;;;;1.90;1.65;;;15.40;99.90;;;;;;4999747;28;20399;-34
2023/08/09 08:19:47;;;;;;;1.95;1.85;;;15.40;99.90;;;;;;4996330;28;20080;-41
2023/08/09 08:22:14;;;;;;;2.75;1.77;;;15.50;99.90;;;;;;4999701;28;20471;-41
2023/08/09 08:24:40;;;;;;;2.70;1.75;;;15.40;99.90;;;;;;5001134;28;20035;-39
2023/08/09 08:27:06;;;;;;;3.75;2.15;;;15.40;99.90;;;;;;4997585;28;20439;-41
2023/08/09 08:29:31;;;;;;;1.85;1.70;;;15.40;99.90;;;;;;4994550;28;20140;-41
2023/08/09 08:31:57;;;;;;;2.90;1.80;;;15.40;99.90;;;;;;4997171;28;20480;-38
2023/08/09 08:34:23;;;;;;;1.98;1.80;;;15.40;99.90;;;;;;5001713;28;20430;-40
2023/08/09 08:36:54;;;;;;;2.42;2.05;;;15.50;99.90;;;;;;4999824;28;20383;-41
2023/08/09 08:39:19;;;;;;;2.40;2.20;;;15.40;99.90;;;;;;4996908;28;20034;-40
2023/08/09 08:41:48;;;;;;;2.85;2.20;;;15.40;99.90;;;;;;4997203;28;20041;-39
2023/08/09 08:44:14;;;;;;;3.30;2.30;;;15.40;99.90;;;;;;4987402;28;20034;-41
2023/08/09 08:46:41;;;;;;;2.17;1.88;;;15.50;99.90;;;;;;4987569;28;20032;-40
2023/08/09 08:49:12;;;;;;;2.70;1.92;;;15.50;99.90;;;;;;4996463;28;20040;-44
2023/08/09 08:51:39;;;;;;;2.60;1.85;;;15.50;99.90;;;;;;4989284;28;20026;-40
2023/08/09 08:54:06;;;;;;;2.28;1.88;;;15.50;99.90;;;;;;5004168;28;20038;-40
2023/08/09 08:56:32;;;;;;;2.53;1.85;;;15.50;99.90;;;;;;5003170;28;20064;-38
2023/08/09 08:59:00;;;;;;;2.40;2.00;;;15.60;99.90;;;;;;4997425;28;20483;-41
2023/08/09 09:01:26;;;;;;;2.25;1.98;;;15.60;99.90;;;;;;4999423;28;20045;-39
2023/08/09 09:03:52;;;;;;;3.25;1.90;;;15.60;99.90;;;;;;4997716;28;20120;-36
2023/08/09 09:06:17;;;;;;;3.05;2.28;;;15.60;99.90;;;;;;5001700;28;20125;-40
2023/08/09 09:08:44;;;;;;;3.13;2.10;;;15.70;99.90;;;;;;4986098;28;20582;-40
2023/08/09 09:11:21;;;;;;;2.63;2.20;;;15.70;99.90;;;;;;4999715;28;20542;-41
2023/08/09 09:13:48;;;;;;;3.60;2.20;;;15.70;99.90;;;;;;5000204;28;20474;-38
2023/08/09 09:16:15;;;;;;;2.78;2.20;;;15.70;99.90;;;;;;4998321;28;20026;-40
2023/08/09 09:18:42;;;;;;;3.63;2.03;;;15.70;99.90;;;;;;5000847;28;20022;-41
2023/08/09 09:21:10;;;;;;;4.63;2.10;;;15.60;99.90;;;;;;4985741;28;20119;-39
2023/08/09 09:23:37;;;;;;;2.83;2.13;;;15.60;99.90;;;;;;4996216;28;20049;-40
2023/08/09 09:26:06;;;;;;;3.40;2.10;;;15.70;99.90;;;;;;4990810;28;20026;-40
2023/08/09 09:28:41;;;;;;;3.97;2.15;;;15.80;99.90;;;;;;5003570;28;20045;-41
2023/08/09 09:31:11;;;;;;;3.30;2.40;;;15.90;99.90;;;;;;5004923;28;20053;-41
2023/08/09 09:33:39;;;;;;;3.42;2.03;;;16.00;99.90;;;;;;5002876;28;20044;-41
2023/08/09 09:36:10;;;;;;;3.38;2.28;;;16.00;99.90;;;;;;5002132;28;20026;-40
2023/08/09 09:38:36;;;;;;;4.07;2.10;;;16.10;99.90;;;;;;5001097;28;20514;-41
2023/08/09 09:41:03;;;;;;;3.95;2.20;;;16.20;99.90;;;;;;5004335;28;20523;-41
2023/08/09 09:43:33;;;;;;;3.05;2.58;;;16.40;99.90;;;;;;5003771;28;20093;-38
2023/08/09 09:45:59;;;;;;;2.67;2.20;;;16.50;99.90;;;;;;5001236;28;20057;-39
2023/08/09 09:48:26;;;;;;;3.35;2.35;;;16.60;99.90;;;;;;4995116;28;20030;-41
2023/08/09 09:50:52;;;;;;;3.50;2.10;;;16.80;99.90;;;;;;5000647;28;20102;-40
2023/08/09 09:53:19;;;;;;;2.70;2.05;;;17.00;99.90;;;;;;5001410;28;20427;-41
2023/08/09 09:55:46;;;;;;;3.03;2.00;;;17.20;99.90;;;;;;5002682;28;20033;-40
2023/08/09 09:58:16;;;;;;;4.78;2.10;;;17.40;99.90;;;;;;5000347;28;20116;-41
2023/08/09 10:00:52;;;;;;;1.85;1.70;;;17.60;99.90;;;;;;5000257;28;20029;-41
2023/08/09 10:03:23;;;;;;;3.20;1.90;;;17.80;99.90;;;;;;5001000;28;20040;-39
2023/08/09 10:05:49;;;;;;;1.90;1.80;;;17.90;99.90;;;;;;4984723;28;20033;-41
2023/08/09 10:08:17;;;;;;;3.15;2.00;;;18.20;99.90;;;;;;5004051;28;20552;-40
2023/08/09 10:10:44;;;;;;;3.15;2.00;;;18.30;99.90;;;;;;5000670;28;20030;-40
2023/08/09 10:13:18;;;;;;;1.95;1.83;;;18.40;99.90;;;;;;5001409;28;20036;-39
2023/08/09 10:15:49;;;;;;;2.55;2.05;;;18.50;99.90;;;;;;4988453;28;20033;-39
2023/08/09 10:18:18;;;;;;;2.45;1.90;;;18.50;99.90;;;;;;4995339;28;20036;-41
2023/08/09 10:20:50;;;;;;;3.63;1.55;;;18.50;99.90;;;;;;5000255;28;20033;-41
2023/08/09 10:23:25;;;;;;;2.85;1.88;;;18.60;99.90;;;;;;5001473;28;20038;-39
2023/08/09 10:25:52;;;;;;;1.98;1.77;;;18.60;99.90;;;;;;5001797;28;20026;-42
2023/08/09 10:28:19;;;;;;;2.95;1.67;;;18.70;99.90;;;;;;4988988;28;20050;-39
2023/08/09 10:30:48;;;;;;;1.98;1.80;;;18.70;99.90;;;;;;4996714;28;20117;-40
2023/08/09 10:33:18;;;;;;;1.98;1.50;;;18.90;99.90;;;;;;5003606;28;20030;-40
2023/08/09 10:35:52;;;;;;;2.33;1.70;;;19.10;99.90;;;;;;4997386;28;20160;-40
2023/08/09 10:38:40;;;;;;;2.63;1.70;;;19.10;99.90;;;;;;5001994;28;20026;-42
2023/08/09 10:41:11;;;;;;;2.60;1.83;;;19.10;99.90;;;;;;5002017;28;20557;-31
2023/08/09 10:43:37;;;;;;;2.47;1.95;;;19.00;99.90;;;;;;4988972;28;20042;-31
2023/08/09 10:46:20;;;;;;;1.80;1.70;;;19.00;99.90;;;;;;5001046;28;20095;-33
2023/08/09 10:48:54;;;;;;;3.58;2.03;;;19.20;99.90;;;;;;5007031;28;20480;-34
2023/08/09 10:51:21;;;;;;;1.83;1.70;;;19.20;99.90;;;;;;5000998;28;20050;-31
2023/08/09 10:54:04;;;;;;;3.60;1.70;;;19.30;99.90;;;;;;5003411;28;20057;-30
2023/08/09 10:56:34;;;;;;;1.80;1.70;;;19.50;99.90;;;;;;5002321;28;20041;-32
2023/08/09 10:59:13;;;;;;;2.03;1.85;;;19.50;99.90;;;;;;4999883;28;20026;-31
2023/08/09 11:01:40;;;;;;;2.40;1.73;;;19.40;99.90;;;;;;5001504;28;20034;-30
2023/08/09 11:04:08;;;;;;;2.05;1.65;;;19.40;99.90;;;;;;5002088;28;20022;-31
2023/08/09 11:06:41;;;;;;;1.70;1.60;;;19.20;99.90;;;;;;4990320;28;20030;-31
2023/08/09 11:09:19;;;;;;;2.55;1.85;;;19.30;99.90;;;;;;5002382;28;20077;-31
2023/08/09 11:11:46;;;;;;;2.85;1.70;;;19.30;99.90;;;;;;5001946;28;20034;-30
2023/08/09 11:14:15;;;;;;;3.50;1.90;;;19.40;99.90;;;;;;5000476;28;20038;-31
2023/08/09 11:16:40;;;;;;;2.00;1.70;;;19.60;99.90;;;;;;4997563;28;20483;-32
2023/08/09 11:19:12;;;;;;;2.00;1.80;;;20.20;99.90;;;;;;4994578;28;20068;-31
2023/08/09 11:21:43;;;;;;;2.88;1.90;;;20.50;99.90;;;;;;4995929;28;20109;-31
2023/08/09 11:24:10;;;;;;;1.60;1.50;;;20.50;99.90;;;;;;5002410;28;20114;-30
2023/08/09 11:26:37;;;;;;;1.77;1.48;;;20.40;99.90;;;;;;5004583;28;20025;-31
2023/08/09 11:29:04;;;;;;;6.87;2.00;;;20.00;99.90;;;;;;5002766;28;20953;-31
2023/08/09 11:31:39;;;;;;;3.67;1.60;;;19.80;99.90;;;;;;5001664;28;20161;-33
2023/08/09 11:34:05;;;;;;;3.15;1.80;;;19.70;99.90;;;;;;5000643;28;20055;-31
2023/08/09 11:36:31;;;;;;;1.73;1.63;;;19.60;99.90;;;;;;5001374;28;20038;-31
2023/08/09 11:39:00;;;;;;;2.58;1.50;;;19.60;99.90;;;;;;4997609;28;20058;-31
2023/08/09 11:41:27;;;;;;;3.13;1.75;;;19.70;99.90;;;;;;5001316;28;20395;-30
2023/08/09 11:43:54;;;;;;;2.28;1.70;;;19.70;99.90;;;;;;5001188;28;20474;-31
2023/08/09 11:46:22;;;;;;;2.53;1.60;;;19.70;99.90;;;;;;5000953;28;20079;-32
2023/08/09 11:48:51;;;;;;;2.35;1.65;;;19.90;99.90;;;;;;4998521;28;20204;-41
2023/08/09 11:51:20;;;;;;;2.15;1.52;;;20.00;99.90;;;;;;4985939;28;20034;-37
2023/08/09 11:53:49;;;;;;;5.47;2.00;;;20.10;99.90;;;;;;4990551;28;20441;-41
2023/08/09 11:56:19;;;;;;;;;;;20.20;99.90;;;;;;4992509;28;20038;-39
2023/08/09 11:58:47;;;;;;;4.20;1.80;;;20.20;99.90;;;;;;4986472;28;20421;-34
2023/08/09 12:01:25;;;;;;;4.55;1.88;;;20.40;99.90;;;;;;4984022;28;20048;-38
2023/08/09 12:04:04;;;;;;;4.07;1.70;;;20.50;99.90;;;;;;4985593;28;20581;-36
2023/08/09 12:06:38;;;;;;;3.65;1.55;;;20.60;99.90;;;;;;4987806;28;20042;-34
2023/08/09 12:09:42;;;;;;;2.15;1.65;;;20.80;99.90;;;;;;4983645;28;20164;-38
2023/08/09 12:12:19;;;;;;;2.38;1.65;;;20.90;99.90;;;;;;4968250;28;20392;-39
2023/08/09 12:14:45;;;;;;;1.83;1.60;;;20.50;99.90;;;;;;4986516;28;20030;-40
2023/08/09 12:17:21;;;;;;;1.92;1.70;;;20.20;99.90;;;;;;4995765;28;20400;-38
2023/08/09 12:19:46;;;;;;;1.67;1.58;;;20.10;99.90;;;;;;4998462;28;20130;-39
2023/08/09 12:22:13;;;;;;;1.70;1.58;;;20.10;99.90;;;;;;4997352;28;20133;-39
2023/08/09 12:24:39;;;;;;;5.55;1.88;;;20.20;99.90;;;;;;5001903;28;20118;-41
2023/08/09 12:27:05;;;;;;;2.42;1.85;;;20.30;99.90;;;;;;5001412;28;20104;-41
2023/08/09 12:29:31;;;;;;;2.38;1.90;;;20.20;99.90;;;;;;5012560;28;20464;-36
2023/08/09 12:31:57;;;;;;;2.75;1.58;;;20.10;99.90;;;;;;4995197;28;20030;-41
2023/08/09 12:34:23;;;;;;;3.22;1.67;;;20.10;99.90;;;;;;4995183;28;20034;-40
2023/08/09 12:36:48;;;;;;;3.30;1.70;;;20.20;99.90;;;;;;4999472;28;20385;-41
2023/08/09 12:39:14;;;;;;;1.58;1.48;;;20.30;99.90;;;;;;4996478;28;20100;-39
2023/08/09 12:41:41;;;;;;;2.00;1.80;;;20.70;99.90;;;;;;5002127;28;20044;-40
2023/08/09 12:44:07;;;;;;;2.90;1.98;;;20.80;99.90;;;;;;4995397;28;20368;-40
2023/08/09 12:46:34;;;;;;;2.58;1.83;;;20.70;99.90;;;;;;4997236;28;20032;-40
2023/08/09 12:49:00;;;;;;;3.53;1.33;;;20.50;99.90;;;;;;5000778;28;20124;-39